Storm Events Database

Event Details

Event Hail
Magnitude 1.00 in.
State MISSISSIPPI
County/Area RANKIN
WFO JAN
Report Source Emergency Manager
NCDC Data Source CSV
Begin Date 2010-04-24 07:11:00.0 CST-6
Begin Location 2ESE ROOK HILL
Begin Lat/Lon 32.17/-89.9
End Date 2010-04-24 07:13:00.0 CST-6
Deaths Direct/Indirect 0/0 (fatality details below, when available...)
Injuries Direct/Indirect 0/0
Property Damage 0.00K
Crop Damage 0.00K
Episode Narrative A powerful spring storm system moved across the region on April 24th and brought an outbreak of severe storms and tornadoes to the area. The most powerful and destructive storm during this event was the long track EF4 tornado which ripped a 149 mile path across the forecast area. In addition to this violent tornado, many other storms became severe and produced 5 additional tornadoes along with numerous reports of quarter to golf ball sized hail. Of the 5 tornadoes, 3 of these were strong (EF2) and occurred across, Jasper, Newton, Lauderdale, Oktibbeha, and Clay Counties.
Event Narrative Nickel to Quarter sized hail was reported southeast of Brandon.


     ‚Äč



All events for this episode:

Location County/Zone St. Date Time T.Z. Type Mag Dth Inj PrD CrD
Totals: 0 0 2.732M 1.000M
ABBOTT CLAY CO. MS 04/24/2010 00:37 CST-6 Hail 1.00 in. 0 0 0.00K 0.00K
NEW HOPE LOWNDES CO. MS 04/24/2010 02:25 CST-6 Hail 1.00 in. 0 0 0.00K 0.00K
COLUMBIA MARION ARPT MARION CO. MS 04/24/2010 05:22 CST-6 Hail 1.00 in. 0 0 0.00K 0.00K
SUMRALL LAMAR CO. MS 04/24/2010 05:41 CST-6 Thunderstorm Wind 52 kts. EG 0 0 0.00K 0.00K
WAXHAW BOLIVAR CO. MS 04/24/2010 05:54 CST-6 Hail 1.00 in. 0 0 0.00K 0.00K
ENTERPRISE LINCOLN CO. MS 04/24/2010 06:30 CST-6 Hail 1.00 in. 0 0 0.00K 0.00K
ROSEDALE BOLIVAR CO. MS 04/24/2010 06:53 CST-6 Hail 1.75 in. 0 0 1.00K 0.00K
WANILLA LAWRENCE CO. MS 04/24/2010 06:57 CST-6 Hail 1.00 in. 0 0 0.00K 0.00K
GUNNISON BOLIVAR CO. MS 04/24/2010 07:02 CST-6 Hail 1.00 in. 0 0 0.00K 0.00K
SHIVERS SIMPSON CO. MS 04/24/2010 07:10 CST-6 Thunderstorm Wind 55 kts. EG 0 0 15.00K 0.00K
ROOK HILL RANKIN CO. MS 04/24/2010 07:11 CST-6 Hail 1.00 in. 0 0 0.00K 0.00K
WEATHERSBY SIMPSON CO. MS 04/24/2010 07:25 CST-6 Hail 1.25 in. 0 0 0.00K 0.00K
RALEIGH SMITH CO. MS 04/24/2010 07:42 CST-6 Thunderstorm Wind 50 kts. EG 0 0 10.00K 0.00K
RALEIGH SMITH CO. MS 04/24/2010 07:42 CST-6 Hail 1.75 in. 0 0 3.00K 0.00K
RALEIGH SMITH CO. MS 04/24/2010 07:43 CST-6 Tornado EF1 0 0 40.00K 0.00K
PINEVILLE SMITH CO. MS 04/24/2010 08:00 CST-6 Hail 1.75 in. 0 0 1.00K 0.00K
MOSS HILL JASPER CO. MS 04/24/2010 08:22 CST-6 Tornado EF2 0 0 400.00K 600.00K
CHUNKY NEWTON CO. MS 04/24/2010 08:34 CST-6 Tornado EF2 0 0 200.00K 100.00K
COLUMBIA MARION CO. MS 04/24/2010 08:36 CST-6 Thunderstorm Wind 50 kts. EG 0 0 50.00K 0.00K
POINT LAUDERDALE CO. MS 04/24/2010 08:40 CST-6 Tornado EF2 0 0 650.00K 300.00K
BASSFIELD JEFFERSON DAVIS CO. MS 04/24/2010 08:41 CST-6 Thunderstorm Wind 60 kts. EG 0 0 15.00K 0.00K
SUMRALL LAMAR CO. MS 04/24/2010 08:48 CST-6 Thunderstorm Wind 52 kts. EG 0 0 0.00K 0.00K
PURVIS LAMAR CO. MS 04/24/2010 09:00 CST-6 Hail 1.00 in. 0 0 0.00K 0.00K
PURVIS LAMAR CO. MS 04/24/2010 09:00 CST-6 Thunderstorm Wind 58 kts. EG 0 0 150.00K 0.00K
ROCK HILL FORREST CO. MS 04/24/2010 09:12 CST-6 Hail 1.50 in. 0 0 0.00K 0.00K
CARNES FORREST CO. MS 04/24/2010 09:20 CST-6 Thunderstorm Wind 50 kts. EG 0 0 0.00K 0.00K
LAUREL JONES CO. MS 04/24/2010 09:45 CST-6 Flash Flood 0 0 5.00K 0.00K
SHUBUTA CLARKE CO. MS 04/24/2010 10:00 CST-6 Thunderstorm Wind 50 kts. EG 0 0 2.00K 0.00K
HARDEE ISSAQUENA CO. MS 04/24/2010 10:44 CST-6 Thunderstorm Wind 70 kts. EG 0 0 0.00K 0.00K
STARKVILLE OKTIBBEHA CO. MS 04/24/2010 13:09 CST-6 Tornado EF2 0 0 650.00K 0.00K
WHITES CLAY CO. MS 04/24/2010 13:28 CST-6 Tornado EF2 0 0 80.00K 0.00K
CEDARBLUFF CLAY CO. MS 04/24/2010 13:38 CST-6 Hail 1.00 in. 0 0 0.00K 0.00K
BRADLEY OKTIBBEHA CO. MS 04/24/2010 14:08 CST-6 Hail 1.25 in. 0 0 0.00K 0.00K
PATRICK OKTIBBEHA CO. MS 04/24/2010 14:19 CST-6 Hail 1.25 in. 0 0 0.00K 0.00K
WEST PT MC CHAREN AR CLAY CO. MS 04/24/2010 14:37 CST-6 Hail 1.00 in. 0 0 0.00K 0.00K
LOUISVILLE WINSTON CO. MS 04/24/2010 14:39 CST-6 Hail 1.00 in. 0 0 0.00K 0.00K
LOAKFOMA WINSTON CO. MS 04/24/2010 14:53 CST-6 Hail 1.00 in. 0 0 0.00K 0.00K
LYNN CREEK NOXUBEE CO. MS 04/24/2010 15:01 CST-6 Hail 1.50 in. 0 0 0.00K 0.00K
FORRESTON LOWNDES CO. MS 04/24/2010 15:30 CST-6 Hail 2.50 in. 0 0 10.00K 0.00K
MC LEOD NOXUBEE CO. MS 04/24/2010 16:00 CST-6 Hail 1.00 in. 0 0 0.00K 0.00K
AUBREY NOXUBEE CO. MS 04/24/2010 16:14 CST-6 Hail 1.00 in. 0 0 0.00K 0.00K
MARTIN LAUDERDALE CO. MS 04/24/2010 18:32 CST-6 Tornado EF1 0 0 150.00K 0.00K
RIO KEMPER CO. MS 04/24/2010 18:35 CST-6 Tornado EF1 0 0 300.00K 0.00K
Totals: 0 0 2.732M 1.000M